Time;durP1;ratioP1;P1;durP2;ratioP2;P2;SDS_P1;SDS_P2;PMS_P1;PMS_P2;Temp;Humidity;BMP_temperature;BMP_pressure;BME280_temperature;BME280_humidity;BME280_pressure;Samples;Min_cycle;Max_cycle;Signal;HPM_P1;HPM_P2
2022/06/23 00:00:53;;;;;;;3.58;2.55;;;;;;;17.09;61.20;99948.25;5092533;28;20048;-77
2022/06/23 00:03:22;;;;;;;3.55;2.75;;;;;;;17.03;61.28;99942.94;5092234;28;20055;-77
2022/06/23 00:05:57;;;;;;;3.53;2.30;;;;;;;16.98;61.66;99937.59;5074607;28;20047;-77
2022/06/23 00:08:24;;;;;;;4.35;2.40;;;;;;;16.93;61.56;99937.91;5096459;28;20052;-77
2022/06/23 00:10:55;;;;;;;3.17;2.25;;;;;;;16.90;61.53;99941.44;5092441;28;20055;-78
2022/06/23 00:13:26;;;;;;;2.95;2.65;;;;;;;16.89;61.00;99939.84;5092318;28;20067;-77
2022/06/23 00:15:55;;;;;;;3.97;2.88;;;;;;;16.83;61.48;99927.25;5092539;28;20052;-77
2022/06/23 00:18:24;;;;;;;;;;;;;;;16.71;61.48;99939.41;5092890;28;20048;-77
2022/06/23 00:20:56;;;;;;;3.33;2.53;;;;;;;16.68;62.12;99928.13;5092392;28;19927;-77
2022/06/23 00:23:26;;;;;;;4.15;2.25;;;;;;;16.62;62.31;99928.38;5092359;28;20052;-77
2022/06/23 00:26:00;;;;;;;4.20;2.22;;;;;;;16.55;62.37;99941.50;5092206;28;20044;-77
2022/06/23 00:28:32;;;;;;;2.50;2.30;;;;;;;16.51;62.22;99946.22;5092239;28;20056;-77
2022/06/23 00:31:02;;;;;;;2.67;2.33;;;;;;;16.51;62.41;99949.84;5091869;28;20480;-77
2022/06/23 00:33:37;;;;;;;5.63;2.60;;;;;;;16.50;62.71;99944.59;5091999;28;20052;-76
2022/06/23 00:36:15;;;;;;;3.70;2.55;;;;;;;16.44;62.79;99956.13;5092127;28;20468;-77
2022/06/23 00:38:42;;;;;;;3.83;2.50;;;;;;;16.43;62.82;99953.69;5092082;28;20052;-77
2022/06/23 00:41:22;;;;;;;4.63;2.47;;;;;;;16.37;62.88;99958.75;5092194;28;20056;-77
2022/06/23 00:43:56;;;;;;;2.65;2.33;;;;;;;16.29;63.24;99945.72;5092049;28;20052;-77
2022/06/23 00:46:28;;;;;;;2.88;2.50;;;;;;;16.28;63.33;99948.91;5092424;28;20059;-77
2022/06/23 00:49:09;;;;;;;3.40;2.80;;;;;;;16.25;63.36;99942.00;5091809;28;20056;-77
2022/06/23 00:51:43;;;;;;;3.97;2.80;;;;;;;16.23;62.85;99941.56;5092573;28;20055;-77
2022/06/23 00:54:18;;;;;;;3.78;2.40;;;;;;;16.22;62.97;99939.94;5091905;28;20048;-77
2022/06/23 00:56:54;;;;;;;3.83;2.80;;;;;;;16.20;62.99;99951.53;5093499;28;20059;-77
2022/06/23 00:59:27;;;;;;;3.60;3.03;;;;;;;16.17;63.19;99945.84;5091592;28;20048;-78
2022/06/23 01:02:00;;;;;;;4.10;2.72;;;;;;;16.12;63.11;99948.94;5092079;28;20056;-77
2022/06/23 01:04:35;;;;;;;3.88;3.15;;;;;;;16.10;63.36;99945.66;5091732;28;20488;-78
2022/06/23 01:07:12;;;;;;;3.28;2.80;;;;;;;16.08;63.74;99946.03;5095129;28;20055;-77
2022/06/23 01:09:47;;;;;;;3.45;2.40;;;;;;;16.03;63.67;99941.50;5095458;28;20048;-77
2022/06/23 01:12:26;;;;;;;4.38;3.05;;;;;;;16.01;63.86;99946.69;5094349;28;20055;-77
2022/06/23 01:14:59;;;;;;;3.85;2.90;;;;;;;15.98;63.72;99957.81;5095370;28;20404;-77
2022/06/23 01:17:32;;;;;;;4.30;2.45;;;;;;;15.97;63.99;99956.19;5095132;28;20048;-77
2022/06/23 01:20:24;;;;;;;3.83;2.80;;;;;;;15.92;64.21;99951.69;5094887;28;20051;-77
2022/06/23 01:23:17;;;;;;;4.25;3.13;;;;;;;15.85;64.27;99945.06;5095584;28;20051;-77
2022/06/23 01:26:08;;;;;;;4.35;2.90;;;;;;;15.77;64.27;99942.09;5094940;28;20056;-77
2022/06/23 01:28:40;;;;;;;5.43;2.85;;;;;;;15.71;64.64;99940.69;5095206;28;20051;-76
2022/06/23 01:31:14;;;;;;;4.22;3.03;;;;;;;15.68;64.46;99938.59;5095148;28;20404;-77
2022/06/23 01:33:47;;;;;;;5.35;3.08;;;;;;;15.69;64.55;99939.44;5099398;28;20051;-76
2022/06/23 01:36:18;;;;;;;4.47;2.80;;;;;;;15.68;64.44;99932.97;5094509;28;20059;-77
2022/06/23 01:38:56;;;;;;;3.28;2.65;;;;;;;15.69;64.54;99933.81;5094685;28;20052;-77
2022/06/23 01:41:31;;;;;;;4.97;3.17;;;;;;;15.69;64.24;99923.41;5095555;28;20067;-77
2022/06/23 01:44:07;;;;;;;4.00;2.90;;;;;;;15.70;64.42;99918.59;5094987;28;20048;-77
2022/06/23 01:46:37;;;;;;;4.40;2.92;;;;;;;15.68;64.23;99920.94;5094557;28;20052;-77
2022/06/23 01:49:12;;;;;;;4.93;3.20;;;;;;;15.70;64.26;99925.00;5094770;28;20064;-77
2022/06/23 01:51:42;;;;;;;4.18;2.70;;;;;;;15.68;64.39;99924.56;5094820;28;20048;-77
2022/06/23 01:54:17;;;;;;;5.78;2.90;;;;;;;15.66;64.64;99918.50;5094860;28;20484;-77
2022/06/23 01:57:03;;;;;;;2.67;2.47;;;;;;;15.60;64.79;99925.53;5094357;28;20044;-77
2022/06/23 01:59:55;;;;;;;3.92;2.90;;;;;;;15.55;64.99;99923.03;5081340;28;20381;-78
2022/06/23 02:02:33;;;;;;;3.95;3.20;;;;;;;15.51;64.91;99922.13;5073763;28;20061;-77
2022/06/23 02:05:24;;;;;;;4.35;3.10;;;;;;;15.46;65.16;99909.16;5074059;28;20048;-77
2022/06/23 02:07:58;;;;;;;4.88;2.92;;;;;;;15.43;65.82;99910.72;5080400;28;20052;-76
2022/06/23 02:10:32;;;;;;;5.72;3.13;;;;;;;15.37;65.72;99905.72;5073785;28;20052;-77
2022/06/23 02:13:12;;;;;;;4.55;3.33;;;;;;;15.35;65.71;99902.44;5073786;28;20060;-76
2022/06/23 02:15:51;;;;;;;4.68;3.10;;;;;;;15.30;65.58;99899.91;5073799;28;20052;-77
2022/06/23 02:18:26;;;;;;;5.00;3.30;;;;;;;15.29;65.46;99906.72;5075505;28;20056;-76
2022/06/23 02:21:05;;;;;;;4.50;3.47;;;;;;;15.26;65.80;99911.03;5073850;28;20492;-76
2022/06/23 02:23:38;;;;;;;4.75;2.80;;;;;;;15.23;65.71;99906.97;5073965;28;20057;-76
2022/06/23 02:26:14;;;;;;;4.13;3.05;;;;;;;15.20;66.21;99907.72;5074068;28;20044;-78
2022/06/23 02:28:48;;;;;;;3.53;2.88;;;;;;;15.19;66.24;99903.25;5073539;28;20515;-77
2022/06/23 02:31:25;;;;;;;4.82;3.30;;;;;;;15.18;66.18;99907.25;5073637;28;20401;-78
2022/06/23 02:33:59;;;;;;;3.78;3.00;;;;;;;15.17;66.04;99902.00;5074142;28;20052;-78
2022/06/23 02:36:37;;;;;;;4.15;2.60;;;;;;;15.17;66.15;99896.38;5073981;28;20063;-81
2022/06/23 02:39:08;;;;;;;3.40;3.03;;;;;;;15.15;66.14;99901.53;5073802;28;20048;-81
2022/06/23 02:41:42;;;;;;;4.07;3.20;;;;;;;15.14;66.13;99903.53;5073097;28;20416;-81
2022/06/23 02:44:29;;;;;;;4.07;3.10;;;;;;;15.15;66.12;99901.53;5073649;28;20068;-80
2022/06/23 02:47:18;;;;;;;4.25;2.97;;;;;;;15.15;66.02;99904.34;5073604;28;20052;-78
2022/06/23 02:50:03;;;;;;;4.15;3.28;;;;;;;15.11;66.22;99909.03;5073700;28;20048;-78
2022/06/23 02:52:54;;;;;;;4.68;2.97;;;;;;;15.09;66.25;99905.78;5078751;28;20056;-79
2022/06/23 02:55:42;;;;;;;4.60;3.20;;;;;;;15.02;65.87;99912.00;5072993;28;20049;-78
2022/06/23 02:58:15;;;;;;;4.47;3.65;;;;;;;15.02;66.43;99906.41;5073275;28;20481;-78
2022/06/23 03:00:49;;;;;;;4.10;3.42;;;;;;;14.96;66.63;99914.25;5089243;28;20059;-78
2022/06/23 03:03:23;;;;;;;4.57;3.53;;;;;;;14.94;66.54;99919.41;5093403;28;20060;-78
2022/06/23 03:05:56;;;;;;;6.55;3.72;;;;;;;14.93;66.67;99925.34;5093390;28;20048;-78
2022/06/23 03:08:33;;;;;;;6.68;3.53;;;;;;;14.91;66.73;99922.94;5093178;28;20055;-78
2022/06/23 03:11:03;;;;;;;4.45;3.75;;;;;;;14.89;66.83;99916.03;5097156;28;20048;-77
2022/06/23 03:13:40;;;;;;;5.45;3.60;;;;;;;14.89;66.93;99919.66;5093298;28;20497;-78
2022/06/23 03:16:13;;;;;;;4.35;3.42;;;;;;;14.87;67.16;99927.63;5092919;28;20051;-78
2022/06/23 03:18:52;;;;;;;6.55;3.78;;;;;;;14.87;67.17;99916.41;5095220;28;20055;-78
2022/06/23 03:21:24;;;;;;;3.78;3.13;;;;;;;14.87;67.28;99915.59;5093227;28;20052;-78
2022/06/23 03:24:09;;;;;;;4.28;3.50;;;;;;;14.87;67.53;99909.97;5093280;28;20052;-79
2022/06/23 03:26:43;;;;;;;5.93;3.50;;;;;;;14.88;67.55;99914.41;5092756;28;20047;-79
2022/06/23 03:29:17;;;;;;;4.93;3.30;;;;;;;14.90;67.42;99910.06;5092436;28;20052;-78
2022/06/23 03:31:51;;;;;;;4.65;3.10;;;;;;;14.90;67.38;99912.88;5092542;28;20056;-78
2022/06/23 03:34:25;;;;;;;4.95;3.60;;;;;;;14.92;67.82;99912.53;5093207;28;20048;-78
2022/06/23 03:36:59;;;;;;;4.97;3.50;;;;;;;14.94;67.86;99910.97;5092662;28;20063;-79
2022/06/23 03:42:23;;;;;;;4.45;3.50;;;;;;;14.97;67.55;99913.09;5093144;28;20063;-78
2022/06/23 03:44:58;;;;;;;5.07;3.65;;;;;;;14.97;67.79;99918.69;5092815;28;20051;-78
2022/06/23 03:47:31;;;;;;;5.43;3.42;;;;;;;15.03;67.71;99919.22;5092665;28;20051;-78
2022/06/23 03:50:06;;;;;;;4.95;3.60;;;;;;;15.06;67.83;99915.72;5092155;28;20051;-77
2022/06/23 03:52:38;;;;;;;7.90;4.82;;;;;;;15.12;67.96;99919.06;5092440;28;20056;-78
2022/06/23 03:55:18;;;;;;;4.90;3.45;;;;;;;15.17;67.62;99913.22;5092974;28;20059;-78
2022/06/23 03:57:53;;;;;;;5.28;3.83;;;;;;;15.22;67.28;99921.34;5092561;28;20059;-78
2022/06/23 04:00:33;;;;;;;9.38;3.40;;;;;;;15.27;67.37;99926.72;5072807;28;20053;-78
2022/06/23 04:03:26;;;;;;;4.55;3.15;;;;;;;15.33;66.78;99922.47;5072278;28;20064;-78
2022/06/23 04:06:22;;;;;;;4.68;3.80;;;;;;;15.29;67.04;99926.38;5068239;28;20063;-78
2022/06/23 04:08:58;;;;;;;5.10;3.30;;;;;;;15.35;67.40;99920.13;5072359;28;20055;-77
2022/06/23 04:11:45;;;;;;;5.13;3.40;;;;;;;15.41;67.00;99926.25;5072100;28;20059;-77
2022/06/23 04:14:21;;;;;;;5.78;3.25;;;;;;;15.52;67.00;99924.56;5072690;28;20386;-77
2022/06/23 04:16:54;;;;;;;3.90;3.10;;;;;;;15.62;66.45;99918.41;5073675;28;20401;-77
2022/06/23 04:19:27;;;;;;;4.93;3.65;;;;;;;15.69;66.34;99920.59;5072008;28;20048;-77
2022/06/23 04:22:04;;;;;;;5.93;3.80;;;;;;;15.77;65.95;99930.84;5073884;28;20049;-77
2022/06/23 04:24:35;;;;;;;4.60;3.15;;;;;;;15.84;65.94;99918.97;5076500;28;20053;-78
2022/06/23 04:27:13;;;;;;;5.80;3.75;;;;;;;15.96;65.66;99915.25;5072304;28;20485;-78
2022/06/23 04:29:41;;;;;;;4.47;3.55;;;;;;;16.05;65.56;99912.25;5071756;28;20053;-77
2022/06/23 04:32:14;;;;;;;5.45;4.25;;;;;;;16.16;65.35;99918.94;5072114;28;20049;-77
2022/06/23 04:34:49;;;;;;;6.72;3.63;;;;;;;16.27;65.16;99916.34;5071692;28;20049;-77
2022/06/23 04:37:27;;;;;;;6.35;3.40;;;;;;;16.30;65.11;99913.63;5072346;28;20056;-77
2022/06/23 04:40:03;;;;;;;5.85;4.35;;;;;;;16.39;64.93;99913.44;5071943;28;20409;-77
2022/06/23 04:42:31;;;;;;;7.45;3.88;;;;;;;16.47;65.25;99917.22;5075379;28;20053;-77
2022/06/23 04:45:27;;;;;;;7.10;3.60;;;;;;;16.52;64.49;99900.03;5075714;28;20401;-77
2022/06/23 04:47:58;;;;;;;6.60;4.45;;;;;;;16.58;64.46;99907.00;5075517;28;20416;-77
2022/06/23 04:50:40;;;;;;;5.90;4.38;;;;;;;16.66;64.01;99905.16;5075471;28;20060;-77
2022/06/23 04:53:20;;;;;;;6.90;4.13;;;;;;;16.71;63.60;99916.91;5075537;28;20484;-77
2022/06/23 04:56:01;;;;;;;5.50;4.30;;;;;;;16.75;63.54;99914.19;5075134;28;20052;-77
2022/06/23 04:58:30;;;;;;;8.05;4.68;;;;;;;16.80;63.61;99914.75;5075293;28;20045;-77
2022/06/23 05:00:57;;;;;;;6.18;4.30;;;;;;;16.86;63.54;99915.25;5093672;28;20059;-77
2022/06/23 05:03:33;;;;;;;7.18;5.03;;;;;;;16.94;63.92;99919.03;5094869;28;20055;-77
2022/06/23 05:06:07;;;;;;;6.32;4.45;;;;;;;17.00;63.88;99917.53;5095212;28;20071;-77
2022/06/23 05:08:40;;;;;;;5.93;4.65;;;;;;;17.10;63.69;99916.13;5098963;28;20052;-77
2022/06/23 05:11:13;;;;;;;6.97;5.20;;;;;;;17.17;64.12;99919.06;5098023;28;20389;-77
2022/06/23 05:13:45;;;;;;;8.77;5.18;;;;;;;17.25;63.91;99918.03;5095978;28;20044;-78
2022/06/23 05:16:20;;;;;;;8.05;4.53;;;;;;;17.34;63.67;99914.97;5095702;28;20381;-77
2022/06/23 05:18:51;;;;;;;10.18;5.15;;;;;;;17.40;63.58;99925.53;5095055;28;20052;-77
2022/06/23 05:21:22;;;;;;;8.27;6.30;;;;;;;17.48;63.51;99934.13;5095191;28;20051;-77
2022/06/23 05:23:59;;;;;;;9.63;6.35;;;;;;;17.56;63.34;99921.81;5095319;28;20051;-78
2022/06/23 05:26:31;;;;;;;10.00;6.70;;;;;;;17.62;63.83;99926.75;5095286;28;20052;-77
2022/06/23 05:29:02;;;;;;;15.00;7.70;;;;;;;17.71;63.76;99922.88;5099658;28;20063;-77
2022/06/23 05:31:34;;;;;;;11.43;7.28;;;;;;;17.77;63.51;99915.72;5094881;28;20052;-77
2022/06/23 05:34:06;;;;;;;12.70;8.18;;;;;;;17.85;63.52;99917.50;5094888;28;20412;-78
2022/06/23 05:36:43;;;;;;;14.63;8.68;;;;;;;17.95;63.33;99921.66;5095256;28;20062;-77
2022/06/23 05:39:19;;;;;;;14.45;8.43;;;;;;;17.99;63.64;99914.09;5094562;28;20052;-77
2022/06/23 05:41:49;;;;;;;16.08;8.80;;;;;;;18.10;63.39;99912.28;5094835;28;20063;-77
2022/06/23 05:44:20;;;;;;;12.95;8.15;;;;;;;18.23;62.97;99921.31;5095037;28;20052;-77
2022/06/23 05:46:50;;;;;;;12.68;7.63;;;;;;;18.29;63.11;99921.78;5094260;28;20047;-77
2022/06/23 05:49:20;;;;;;;10.57;6.45;;;;;;;18.38;62.66;99916.69;5094564;28;20047;-77
2022/06/23 05:51:53;;;;;;;8.23;5.97;;;;;;;18.49;62.58;99914.81;5094792;28;20055;-77
2022/06/23 05:54:29;;;;;;;7.40;5.03;;;;;;;18.59;62.75;99916.19;5094849;28;20056;-77
2022/06/23 05:57:01;;;;;;;6.05;5.25;;;;;;;18.72;62.88;99916.75;5094859;28;20055;-77
2022/06/23 05:59:38;;;;;;;8.20;5.18;;;;;;;18.82;62.70;99921.75;5093987;28;20052;-77
2022/06/23 06:02:12;;;;;;;5.65;4.90;;;;;;;18.93;62.89;99911.38;5095095;28;20432;-77
2022/06/23 06:04:46;;;;;;;6.53;4.93;;;;;;;19.04;62.44;99914.31;5094088;28;20059;-77
2022/06/23 06:07:16;;;;;;;6.95;4.70;;;;;;;19.16;62.39;99913.25;5094036;28;20071;-78
2022/06/23 06:09:46;;;;;;;7.93;5.10;;;;;;;19.22;62.31;99917.38;5094039;28;20416;-77
2022/06/23 06:12:18;;;;;;;6.38;5.22;;;;;;;19.35;62.23;99907.41;5093771;28;20048;-76
2022/06/23 06:14:49;;;;;;;6.15;4.57;;;;;;;19.41;62.37;99908.69;5093686;28;20401;-76
2022/06/23 06:17:20;;;;;;;6.65;4.53;;;;;;;19.53;61.79;99907.59;5094103;28;20349;-77
2022/06/23 06:19:50;;;;;;;5.15;4.47;;;;;;;19.62;61.73;99910.09;5093763;28;20048;-77
2022/06/23 06:22:42;;;;;;;5.72;4.43;;;;;;;19.78;61.28;99918.31;5093985;28;20048;-77
2022/06/23 06:25:20;;;;;;;7.35;4.93;;;;;;;19.88;61.05;99920.44;5094260;28;20056;-77
2022/06/23 06:27:47;;;;;;;7.70;4.88;;;;;;;20.04;60.74;99917.31;5093767;28;20063;-76
2022/06/23 06:30:16;;;;;;;5.55;3.95;;;;;;;20.18;60.23;99910.94;5094221;28;20138;-76
2022/06/23 06:32:44;;;;;;;;;;;;;;;20.30;60.20;99909.81;5094283;28;20331;-76
2022/06/23 06:35:21;;;;;;;5.15;3.70;;;;;;;20.45;60.04;99908.69;5093681;28;19920;-76
2022/06/23 06:37:52;;;;;;;6.30;3.72;;;;;;;20.63;59.97;99903.97;5094110;28;20048;-76
2022/06/23 06:40:21;;;;;;;5.18;3.47;;;;;;;20.81;60.24;99911.72;5093589;28;20055;-76
2022/06/23 06:42:52;;;;;;;5.95;3.72;;;;;;;20.97;59.73;99900.88;5093767;28;20066;-76
2022/06/23 06:45:23;;;;;;;5.13;3.42;;;;;;;21.10;59.49;99904.13;5093198;28;20052;-76
2022/06/23 06:47:50;;;;;;;5.22;3.53;;;;;;;21.25;58.65;99902.97;5093224;28;20052;-77
2022/06/23 06:50:28;;;;;;;4.95;3.28;;;;;;;21.45;58.20;99897.78;5093645;28;20048;-76
2022/06/23 06:52:57;;;;;;;4.47;3.50;;;;;;;21.64;57.86;99912.78;5093566;28;20063;-76
2022/06/23 06:55:33;;;;;;;5.53;3.08;;;;;;;21.79;56.76;99903.06;5093348;28;20055;-77
2022/06/23 06:58:08;;;;;;;4.75;3.80;;;;;;;21.95;56.25;99904.69;5092646;28;20055;-77
2022/06/23 07:00:40;;;;;;;3.97;2.65;;;;;;;22.15;55.73;99907.91;5072975;28;20059;-77
2022/06/23 07:03:10;;;;;;;4.28;2.95;;;;;;;22.34;54.88;99904.63;5071895;28;20056;-76
2022/06/23 07:05:44;;;;;;;4.93;3.25;;;;;;;22.52;54.75;99915.97;5072996;28;20393;-76
2022/06/23 07:08:18;;;;;;;5.25;2.97;;;;;;;22.68;53.56;99902.13;5072842;28;20052;-77
2022/06/23 07:10:51;;;;;;;4.50;2.80;;;;;;;22.90;51.98;99902.03;5072662;28;20053;-77
2022/06/23 07:13:25;;;;;;;4.35;2.67;;;;;;;23.07;50.59;99898.31;5073393;28;20052;-77
2022/06/23 07:15:57;;;;;;;4.95;3.00;;;;;;;23.34;51.20;99902.63;5072984;28;20468;-77
2022/06/23 07:18:30;;;;;;;3.33;2.22;;;;;;;23.54;49.12;99894.38;5072940;28;20063;-77
2022/06/23 07:21:04;;;;;;;4.72;2.58;;;;;;;23.74;49.29;99898.28;5076593;28;20056;-77
2022/06/23 07:23:39;;;;;;;3.53;2.50;;;;;;;23.93;48.48;99893.28;5072554;28;20048;-77
2022/06/23 07:26:21;;;;;;;5.55;2.58;;;;;;;24.09;47.09;99897.19;5072527;28;20056;-77
2022/06/23 07:28:54;;;;;;;2.80;2.30;;;;;;;24.29;44.33;99888.84;5072585;28;20057;-77
2022/06/23 07:31:31;;;;;;;4.30;2.40;;;;;;;24.51;43.21;99895.16;5072792;28;20049;-77
2022/06/23 07:34:04;;;;;;;2.80;2.22;;;;;;;24.75;43.42;99897.31;5072480;28;20408;-77
2022/06/23 07:36:35;;;;;;;3.88;2.30;;;;;;;24.81;42.87;99893.56;5074742;28;20052;-77
2022/06/23 07:39:08;;;;;;;5.20;2.40;;;;;;;24.93;42.18;99892.19;5074795;28;20493;-77
2022/06/23 07:41:43;;;;;;;5.68;2.63;;;;;;;25.25;42.61;99896.69;5072727;28;20079;-77
2022/06/23 07:44:16;;;;;;;5.30;2.75;;;;;;;25.44;41.90;99886.63;5072615;28;20489;-77
2022/06/23 07:46:43;;;;;;;3.75;2.53;;;;;;;25.68;41.84;99887.44;5073106;28;20075;-77
2022/06/23 07:49:11;;;;;;;5.47;2.60;;;;;;;25.83;40.80;99891.69;5072515;28;20060;-77
2022/06/23 07:51:39;;;;;;;5.63;2.65;;;;;;;26.02;40.11;99887.31;5071970;28;20056;-77
2022/06/23 07:54:11;;;;;;;4.10;2.50;;;;;;;26.17;40.94;99885.00;5071979;28;20522;-77
2022/06/23 07:56:40;;;;;;;4.00;2.25;;;;;;;26.24;39.55;99879.16;5072514;28;20052;-77
2022/06/23 07:59:11;;;;;;;8.20;2.67;;;;;;;26.89;39.33;99886.47;5074956;28;20055;-77
2022/06/23 08:01:44;;;;;;;5.22;2.80;;;;;;;27.98;36.44;99877.03;5092311;28;20048;-77
2022/06/23 08:04:20;;;;;;;5.85;2.60;;;;;;;28.96;34.58;99879.63;5092549;28;20059;-77
2022/06/23 08:06:48;;;;;;;4.22;2.22;;;;;;;29.61;33.61;99877.59;5092494;28;20060;-77
2022/06/23 08:09:29;;;;;;;4.40;2.85;;;;;;;30.41;32.00;99882.28;5092665;28;20052;-78
2022/06/23 08:14:50;;;;;;;4.10;2.58;;;;;;;32.19;30.14;99873.59;5095283;28;20059;-77
2022/06/23 08:17:19;;;;;;;4.95;2.80;;;;;;;32.87;28.69;99869.75;5096652;28;20044;-77
2022/06/23 08:19:51;;;;;;;4.60;2.47;;;;;;;33.62;27.41;99871.13;5096612;28;20059;-77
2022/06/23 08:22:22;;;;;;;4.75;2.85;;;;;;;34.13;27.03;99859.44;5096360;28;20052;-77
2022/06/23 08:24:55;;;;;;;5.35;2.58;;;;;;;34.90;25.77;99862.78;5095903;28;20048;-77
2022/06/23 08:27:28;;;;;;;4.22;2.50;;;;;;;35.80;25.00;99855.59;5096188;28;20059;-77
2022/06/23 08:30:01;;;;;;;7.28;2.60;;;;;;;36.37;23.89;99848.44;5096491;28;20055;-77
2022/06/23 08:32:30;;;;;;;3.45;2.22;;;;;;;37.07;23.30;99853.16;5096146;28;20052;-77
2022/06/23 08:35:02;;;;;;;7.68;2.78;;;;;;;37.98;22.07;99854.59;5095840;28;20055;-77
2022/06/23 08:37:35;;;;;;;5.72;2.35;;;;;;;38.25;21.64;99855.28;5097926;28;20059;-77
2022/06/23 08:40:15;;;;;;;3.53;2.40;;;;;;;38.92;21.22;99857.59;5096134;28;20419;-75
2022/06/23 08:42:51;;;;;;;3.20;2.65;;;;;;;39.42;20.76;99856.03;5096466;28;20412;-77
2022/06/23 08:45:28;;;;;;;4.35;2.42;;;;;;;39.99;19.84;99845.88;5095683;28;20059;-77
2022/06/23 08:48:04;;;;;;;4.50;2.20;;;;;;;40.86;18.39;99857.41;5095678;28;20055;-77
2022/06/23 08:50:36;;;;;;;3.40;2.10;;;;;;;41.28;19.29;99855.22;5095715;28;20056;-77
2022/06/23 08:53:12;;;;;;;3.70;2.33;;;;;;;41.67;17.22;99854.88;5101028;28;20048;-78
2022/06/23 08:55:44;;;;;;;3.08;2.17;;;;;;;42.16;17.39;99846.06;5095953;28;20060;-77
2022/06/23 08:58:20;;;;;;;4.10;2.22;;;;;;;42.76;17.07;99847.91;5095836;28;20063;-78
2022/06/23 09:00:55;;;;;;;4.07;2.33;;;;;;;43.62;16.18;99844.34;5095382;28;20495;-78
2022/06/23 09:03:34;;;;;;;3.92;2.28;;;;;;;43.72;16.26;99848.44;5095262;28;20067;-77
2022/06/23 09:06:10;;;;;;;4.03;2.08;;;;;;;43.38;15.68;99849.84;5095557;28;20487;-75
2022/06/23 09:08:45;;;;;;;5.43;2.55;;;;;;;43.47;15.37;99841.97;5095735;28;20393;-78
2022/06/23 09:11:18;;;;;;;2.95;2.03;;;;;;;43.02;15.79;99846.47;5096033;28;20044;-78
2022/06/23 09:14:05;;;;;;;3.80;2.20;;;;;;;42.63;16.24;99847.84;5100943;28;20377;-77
2022/06/23 09:16:54;;;;;;;5.18;2.30;;;;;;;42.81;15.92;99848.38;5095175;28;20059;-77
2022/06/23 09:19:40;;;;;;;3.33;2.35;;;;;;;43.32;15.50;99848.38;5095061;28;20052;-77
2022/06/23 09:22:35;;;;;;;3.47;2.00;;;;;;;43.66;15.46;99845.66;5095349;28;20408;-77
2022/06/23 09:25:12;;;;;;;4.22;2.30;;;;;;;43.93;15.57;99846.44;5094740;28;20047;-77
2022/06/23 09:27:52;;;;;;;2.80;2.20;;;;;;;44.08;14.45;99842.97;5094071;28;20063;-77
2022/06/23 09:30:34;;;;;;;5.13;2.47;;;;;;;43.69;14.86;99832.00;5094702;28;20523;-77
2022/06/23 09:33:16;;;;;;;3.88;1.90;;;;;;;43.55;15.00;99828.22;5098966;28;20048;-77
2022/06/23 09:36:15;;;;;;;3.67;2.15;;;;;;;43.08;15.30;99834.66;5097244;28;20472;-78
2022/06/23 09:39:14;;;;;;;2.67;2.28;;;;;;;43.07;14.96;99830.94;5088695;28;20056;-78
2022/06/23 09:42:04;;;;;;;4.35;2.15;;;;;;;43.34;14.51;99837.66;5094580;28;20431;-77
2022/06/23 09:44:50;;;;;;;2.80;2.22;;;;;;;42.38;15.49;99824.47;5094580;28;20055;-78
2022/06/23 09:47:42;;;;;;;3.78;2.50;;;;;;;42.61;15.06;99832.97;5095175;28;20059;-78
2022/06/23 09:50:35;;;;;;;2.45;2.10;;;;;;;42.64;15.20;99828.13;5094262;28;20410;-78
2022/06/23 09:53:25;;;;;;;3.63;2.25;;;;;;;42.87;14.71;99837.41;5091296;28;20056;-77
2022/06/23 09:56:17;;;;;;;4.10;1.92;;;;;;;42.93;14.83;99829.31;5094154;28;20420;-79
2022/06/23 09:59:07;;;;;;;3.47;2.10;;;;;;;43.55;13.93;99822.34;5094301;28;20044;-77
2022/06/23 10:01:46;;;;;;;3.00;2.33;;;;;;;44.24;13.47;99823.38;5094770;28;20404;-78
2022/06/23 10:04:26;;;;;;;2.55;2.15;;;;;;;44.62;13.58;99813.47;5094068;28;20055;-78
2022/06/23 10:07:17;;;;;;;2.15;1.95;;;;;;;44.37;13.16;99808.69;5095001;28;20412;-78
2022/06/23 10:09:55;;;;;;;4.25;2.20;;;;;;;43.90;13.59;99817.44;5094531;28;20059;-78
2022/06/23 10:12:50;;;;;;;3.67;2.25;;;;;;;42.94;14.32;99816.22;5094472;28;20067;-79
2022/06/23 10:15:36;;;;;;;3.78;2.45;;;;;;;43.28;14.54;99815.66;5094082;28;20048;-78
2022/06/23 10:18:29;;;;;;;3.22;2.38;;;;;;;44.22;13.78;99808.47;5094178;28;20055;-78
2022/06/23 10:21:09;;;;;;;3.28;2.00;;;;;;;45.31;12.56;99814.19;5093828;28;20461;-78
2022/06/23 10:23:53;;;;;;;4.13;2.60;;;;;;;45.24;12.62;99809.00;5093828;28;20059;-78
2022/06/23 10:26:46;;;;;;;4.72;2.33;;;;;;;44.65;12.93;99803.50;5093882;28;20495;-78
2022/06/23 10:29:35;;;;;;;3.45;2.10;;;;;;;45.11;12.99;99793.03;5094146;28;20052;-78
2022/06/23 10:32:39;;;;;;;3.58;2.30;;;;;;;45.42;12.88;99799.16;5093722;28;20056;-78
2022/06/23 10:35:23;;;;;;;2.92;2.30;;;;;;;45.81;12.17;99800.25;5093520;28;20044;-78
2022/06/23 10:38:18;;;;;;;2.90;2.10;;;;;;;45.70;12.27;99803.53;5092566;28;20130;-78
2022/06/23 10:41:10;;;;;;;3.13;2.10;;;;;;;45.29;12.31;99796.34;5092816;28;20415;-78
2022/06/23 10:43:58;;;;;;;4.57;2.70;;;;;;;44.73;12.77;99793.44;5100007;28;20059;-79
2022/06/23 10:46:32;;;;;;;3.70;2.13;;;;;;;45.49;13.62;99792.56;5096291;28;20052;-78
2022/06/23 10:49:22;;;;;;;2.60;2.03;;;;;;;45.65;12.28;99787.59;5093773;28;20063;-78
2022/06/23 10:52:16;;;;;;;3.67;2.30;;;;;;;45.51;12.96;99786.88;5094924;28;20056;-78
2022/06/23 10:55:08;;;;;;;2.88;2.10;;;;;;;46.16;12.15;99789.03;5083197;28;20056;-78
2022/06/23 10:57:54;;;;;;;4.65;2.50;;;;;;;46.16;11.85;99781.00;5093081;28;20511;-78
2022/06/23 11:00:30;;;;;;;2.50;2.30;;;;;;;46.40;11.94;99767.16;5057259;28;20049;-77
2022/06/23 11:03:33;;;;;;;3.33;2.25;;;;;;;46.76;11.70;99764.09;5052744;28;20483;-78
2022/06/23 11:06:15;;;;;;;2.60;2.17;;;;;;;47.07;11.33;99764.13;5053422;28;20060;-78
2022/06/23 11:09:01;;;;;;;3.00;2.55;;;;;;;47.32;11.69;99758.44;5053016;28;20148;-78
2022/06/23 11:11:48;;;;;;;2.75;2.30;;;;;;;47.46;11.12;99767.88;5055405;28;20072;-78
2022/06/23 11:14:28;;;;;;;4.00;2.28;;;;;;;46.90;11.34;99764.72;5052994;28;20053;-78
2022/06/23 11:17:02;;;;;;;3.28;2.22;;;;;;;46.96;10.94;99761.59;5053154;28;20175;-78
2022/06/23 11:19:56;;;;;;;3.33;1.70;;;;;;;47.40;11.20;99755.47;5052732;28;20049;-78
2022/06/23 11:22:38;;;;;;;3.30;2.25;;;;;;;46.98;11.20;99759.63;5052768;28;20053;-78
2022/06/23 11:25:24;;;;;;;2.17;1.90;;;;;;;47.90;11.58;99749.88;5052863;28;20061;-79
2022/06/23 11:28:13;;;;;;;2.70;2.13;;;;;;;48.09;10.83;99752.34;5052657;28;20060;-78
2022/06/23 11:30:55;;;;;;;4.22;2.38;;;;;;;48.14;11.64;99738.75;5052807;28;20049;-79
2022/06/23 11:33:41;;;;;;;4.93;2.35;;;;;;;49.08;10.57;99750.16;5052450;28;20057;-78
2022/06/23 11:36:23;;;;;;;6.43;2.28;;;;;;;48.64;10.04;99750.69;5053239;28;20057;-78
2022/06/23 11:39:11;;;;;;;3.92;2.00;;;;;;;48.29;10.49;99747.53;5052930;28;20053;-78
2022/06/23 11:42:02;;;;;;;4.72;2.58;;;;;;;47.79;10.96;99738.47;5052503;28;20045;-78
2022/06/23 11:44:54;;;;;;;3.22;2.30;;;;;;;47.70;11.24;99742.06;5052373;28;20056;-77
2022/06/23 11:47:34;;;;;;;2.83;2.20;;;;;;;48.03;11.02;99739.97;5053519;28;20508;-78
2022/06/23 11:50:12;;;;;;;2.58;2.03;;;;;;;48.56;10.72;99744.03;5052214;28;20056;-78
2022/06/23 11:52:53;;;;;;;2.47;2.28;;;;;;;47.63;10.86;99742.84;5052709;28;20053;-78
2022/06/23 11:55:33;;;;;;;3.70;2.22;;;;;;;47.43;11.03;99738.75;5052123;28;20060;-77
2022/06/23 11:58:25;;;;;;;2.65;1.88;;;;;;;47.45;11.07;99738.94;5052658;28;20057;-77
2022/06/23 12:01:07;;;;;;;2.65;2.08;;;;;;;47.13;11.19;99725.59;5089611;28;20058;-77
2022/06/23 12:03:47;;;;;;;3.08;2.10;;;;;;;45.84;11.80;99727.66;5091862;28;20052;-77
2022/06/23 12:06:26;;;;;;;3.58;2.30;;;;;;;46.02;12.75;99734.63;5092304;28;20056;-77
2022/06/23 12:09:01;;;;;;;3.50;1.95;;;;;;;46.50;11.77;99726.16;5092574;28;20052;-77
2022/06/23 12:11:31;;;;;;;3.17;2.10;;;;;;;47.39;11.94;99724.41;5092167;28;20075;-76
2022/06/23 12:14:02;;;;;;;5.38;2.20;;;;;;;47.81;11.38;99726.84;5091977;28;20056;-77
2022/06/23 12:16:32;;;;;;;5.85;2.30;;;;;;;47.26;10.95;99727.56;5092798;28;20063;-77
2022/06/23 12:19:08;;;;;;;2.63;1.98;;;;;;;47.43;11.18;99715.16;5092067;28;20048;-76
2022/06/23 12:21:41;;;;;;;3.38;2.30;;;;;;;47.44;11.60;99719.66;5092079;28;20048;-77
2022/06/23 12:24:17;;;;;;;3.15;2.20;;;;;;;46.67;11.65;99714.56;5091852;28;20056;-77
2022/06/23 12:26:51;;;;;;;6.03;2.25;;;;;;;45.12;12.38;99718.16;5092845;28;20372;-78